sensor_id;sensor_type;location;lat;lon;timestamp;P1;durP1;ratioP1;P2;durP2;ratioP2
48076;SDS011;33854;57.708;12.008;2022-09-13T00:00:16;10.67;;;3.87;;
48076;SDS011;33854;57.708;12.008;2022-09-13T00:02:41;12.57;;;5.07;;
48076;SDS011;33854;57.708;12.008;2022-09-13T00:05:06;6.60;;;3.93;;
48076;SDS011;33854;57.708;12.008;2022-09-13T00:07:32;7.57;;;5.03;;
48076;SDS011;33854;57.708;12.008;2022-09-13T00:09:57;10.53;;;5.60;;
48076;SDS011;33854;57.708;12.008;2022-09-13T00:12:23;10.83;;;5.10;;
48076;SDS011;33854;57.708;12.008;2022-09-13T00:14:48;12.53;;;5.33;;
48076;SDS011;33854;57.708;12.008;2022-09-13T00:17:14;13.37;;;5.23;;
48076;SDS011;33854;57.708;12.008;2022-09-13T00:19:39;10.33;;;5.57;;
48076;SDS011;33854;57.708;12.008;2022-09-13T00:22:04;9.77;;;4.87;;
48076;SDS011;33854;57.708;12.008;2022-09-13T00:24:30;10.90;;;5.67;;
48076;SDS011;33854;57.708;12.008;2022-09-13T00:26:58;12.45;;;5.22;;
48076;SDS011;33854;57.708;12.008;2022-09-13T00:29:23;10.48;;;6.38;;
48076;SDS011;33854;57.708;12.008;2022-09-13T00:31:49;14.70;;;5.90;;
48076;SDS011;33854;57.708;12.008;2022-09-13T00:34:14;9.43;;;4.47;;
48076;SDS011;33854;57.708;12.008;2022-09-13T00:36:40;9.60;;;5.33;;
48076;SDS011;33854;57.708;12.008;2022-09-13T00:39:05;7.50;;;5.00;;
48076;SDS011;33854;57.708;12.008;2022-09-13T00:41:30;7.37;;;3.93;;
48076;SDS011;33854;57.708;12.008;2022-09-13T00:43:58;4.20;;;3.03;;
48076;SDS011;33854;57.708;12.008;2022-09-13T00:46:41;6.28;;;4.13;;
48076;SDS011;33854;57.708;12.008;2022-09-13T00:51:36;8.13;;;3.70;;
48076;SDS011;33854;57.708;12.008;2022-09-13T00:56:33;6.88;;;4.47;;
48076;SDS011;33854;57.708;12.008;2022-09-13T00:59:06;6.95;;;4.15;;
48076;SDS011;33854;57.708;12.008;2022-09-13T01:01:43;7.57;;;4.10;;
48076;SDS011;33854;57.708;12.008;2022-09-13T01:04:14;7.70;;;4.20;;
48076;SDS011;33854;57.708;12.008;2022-09-13T01:06:41;8.05;;;3.67;;
48076;SDS011;33854;57.708;12.008;2022-09-13T01:09:09;7.80;;;4.78;;
48076;SDS011;33854;57.708;12.008;2022-09-13T01:11:41;10.55;;;5.13;;
48076;SDS011;33854;57.708;12.008;2022-09-13T01:14:15;8.43;;;4.78;;
48076;SDS011;33854;57.708;12.008;2022-09-13T01:16:42;7.47;;;4.82;;
48076;SDS011;33854;57.708;12.008;2022-09-13T01:19:08;9.53;;;4.17;;
48076;SDS011;33854;57.708;12.008;2022-09-13T01:30:21;10.18;;;4.30;;
48076;SDS011;33854;57.708;12.008;2022-09-13T01:35:41;8.02;;;3.17;;
48076;SDS011;33854;57.708;12.008;2022-09-13T01:52:08;0.10;;;0.10;;
48076;SDS011;33854;57.708;12.008;2022-09-13T01:57:12;0.30;;;0.20;;
48076;SDS011;33854;57.708;12.008;2022-09-13T01:59:45;0.63;;;0.38;;
48076;SDS011;33854;57.708;12.008;2022-09-13T02:05:02;0.00;;;0.00;;
48076;SDS011;33854;57.708;12.008;2022-09-13T02:07:36;1.52;;;0.45;;
48076;SDS011;33854;57.708;12.008;2022-09-13T02:10:10;0.00;;;0.00;;
48076;SDS011;33854;57.708;12.008;2022-09-13T02:12:41;0.05;;;0.05;;
48076;SDS011;33854;57.708;12.008;2022-09-13T02:15:10;0.32;;;0.30;;
48076;SDS011;33854;57.708;12.008;2022-09-13T02:17:42;0.00;;;0.00;;
48076;SDS011;33854;57.708;12.008;2022-09-13T02:20:20;0.10;;;0.10;;
48076;SDS011;33854;57.708;12.008;2022-09-13T02:22:52;0.00;;;0.00;;
48076;SDS011;33854;57.708;12.008;2022-09-13T02:25:21;0.00;;;0.00;;
48076;SDS011;33854;57.708;12.008;2022-09-13T02:27:52;0.00;;;0.00;;
48076;SDS011;33854;57.708;12.008;2022-09-13T02:30:23;0.00;;;0.00;;
48076;SDS011;33854;57.708;12.008;2022-09-13T02:32:56;0.00;;;0.00;;
48076;SDS011;33854;57.708;12.008;2022-09-13T02:35:26;0.00;;;0.00;;
48076;SDS011;33854;57.708;12.008;2022-09-13T02:37:59;1.05;;;0.70;;
48076;SDS011;33854;57.708;12.008;2022-09-13T02:40:30;0.00;;;0.00;;
48076;SDS011;33854;57.708;12.008;2022-09-13T02:46:24;1.10;;;0.35;;
48076;SDS011;33854;57.708;12.008;2022-09-13T02:49:05;0.00;;;0.00;;
48076;SDS011;33854;57.708;12.008;2022-09-13T02:51:46;0.10;;;0.10;;
48076;SDS011;33854;57.708;12.008;2022-09-13T02:59:46;0.00;;;0.00;;
48076;SDS011;33854;57.708;12.008;2022-09-13T03:02:14;0.00;;;0.00;;
48076;SDS011;33854;57.708;12.008;2022-09-13T03:04:43;0.00;;;0.00;;
48076;SDS011;33854;57.708;12.008;2022-09-13T03:07:12;0.00;;;0.00;;
48076;SDS011;33854;57.708;12.008;2022-09-13T03:09:40;0.00;;;0.00;;
48076;SDS011;33854;57.708;12.008;2022-09-13T03:20:13;0.00;;;0.00;;
48076;SDS011;33854;57.708;12.008;2022-09-13T03:31:28;0.03;;;0.03;;
48076;SDS011;33854;57.708;12.008;2022-09-13T03:33:56;0.10;;;0.10;;
48076;SDS011;33854;57.708;12.008;2022-09-13T03:36:36;0.70;;;0.38;;
48076;SDS011;33854;57.708;12.008;2022-09-13T03:39:11;0.00;;;0.00;;
48076;SDS011;33854;57.708;12.008;2022-09-13T03:41:46;0.08;;;0.08;;
48076;SDS011;33854;57.708;12.008;2022-09-13T03:44:18;0.00;;;0.00;;
48076;SDS011;33854;57.708;12.008;2022-09-13T03:46:47;0.00;;;0.00;;
48076;SDS011;33854;57.708;12.008;2022-09-13T03:49:17;0.00;;;0.00;;
48076;SDS011;33854;57.708;12.008;2022-09-13T03:51:45;0.10;;;0.10;;
48076;SDS011;33854;57.708;12.008;2022-09-13T03:54:27;0.00;;;0.00;;
48076;SDS011;33854;57.708;12.008;2022-09-13T03:57:15;0.00;;;0.00;;
48076;SDS011;33854;57.708;12.008;2022-09-13T03:59:47;0.00;;;0.00;;
48076;SDS011;33854;57.708;12.008;2022-09-13T04:02:14;0.00;;;0.00;;
48076;SDS011;33854;57.708;12.008;2022-09-13T04:07:07;0.00;;;0.00;;
48076;SDS011;33854;57.708;12.008;2022-09-13T04:09:35;0.00;;;0.00;;
48076;SDS011;33854;57.708;12.008;2022-09-13T04:12:00;0.00;;;0.00;;
48076;SDS011;33854;57.708;12.008;2022-09-13T04:14:26;0.00;;;0.00;;
48076;SDS011;33854;57.708;12.008;2022-09-13T04:16:52;0.00;;;0.00;;
48076;SDS011;33854;57.708;12.008;2022-09-13T04:19:19;0.00;;;0.00;;
48076;SDS011;33854;57.708;12.008;2022-09-13T04:21:51;0.00;;;0.00;;
48076;SDS011;33854;57.708;12.008;2022-09-13T04:24:18;0.20;;;0.20;;
48076;SDS011;33854;57.708;12.008;2022-09-13T04:26:48;0.00;;;0.00;;
48076;SDS011;33854;57.708;12.008;2022-09-13T04:29:18;0.00;;;0.00;;
48076;SDS011;33854;57.708;12.008;2022-09-13T04:31:45;0.00;;;0.00;;
48076;SDS011;33854;57.708;12.008;2022-09-13T04:34:10;0.00;;;0.00;;
48076;SDS011;33854;57.708;12.008;2022-09-13T04:36:36;0.00;;;0.00;;
48076;SDS011;33854;57.708;12.008;2022-09-13T04:39:02;0.00;;;0.00;;
48076;SDS011;33854;57.708;12.008;2022-09-13T04:41:28;0.00;;;0.00;;
48076;SDS011;33854;57.708;12.008;2022-09-13T04:43:54;0.33;;;0.33;;
48076;SDS011;33854;57.708;12.008;2022-09-13T04:46:19;0.00;;;0.00;;
48076;SDS011;33854;57.708;12.008;2022-09-13T04:48:48;0.00;;;0.00;;
48076;SDS011;33854;57.708;12.008;2022-09-13T04:51:14;0.00;;;0.00;;
48076;SDS011;33854;57.708;12.008;2022-09-13T04:53:41;0.00;;;0.00;;
48076;SDS011;33854;57.708;12.008;2022-09-13T04:56:07;0.00;;;0.00;;
48076;SDS011;33854;57.708;12.008;2022-09-13T04:58:33;0.00;;;0.00;;
48076;SDS011;33854;57.708;12.008;2022-09-13T05:01:02;0.50;;;0.33;;
48076;SDS011;33854;57.708;12.008;2022-09-13T05:03:29;0.00;;;0.00;;
48076;SDS011;33854;57.708;12.008;2022-09-13T05:06:06;0.00;;;0.00;;
48076;SDS011;33854;57.708;12.008;2022-09-13T05:08:33;0.00;;;0.00;;
48076;SDS011;33854;57.708;12.008;2022-09-13T05:10:59;0.00;;;0.00;;
48076;SDS011;33854;57.708;12.008;2022-09-13T05:13:26;0.00;;;0.00;;
48076;SDS011;33854;57.708;12.008;2022-09-13T05:15:59;0.00;;;0.00;;
48076;SDS011;33854;57.708;12.008;2022-09-13T05:18:30;6.65;;;0.93;;
48076;SDS011;33854;57.708;12.008;2022-09-13T05:20:57;4.95;;;1.02;;
48076;SDS011;33854;57.708;12.008;2022-09-13T05:23:25;6.80;;;1.08;;
48076;SDS011;33854;57.708;12.008;2022-09-13T05:25:55;5.18;;;0.73;;
48076;SDS011;33854;57.708;12.008;2022-09-13T05:28:26;4.30;;;0.60;;
48076;SDS011;33854;57.708;12.008;2022-09-13T05:30:53;5.95;;;1.38;;
48076;SDS011;33854;57.708;12.008;2022-09-13T05:33:23;7.90;;;1.00;;
48076;SDS011;33854;57.708;12.008;2022-09-13T05:35:50;1.88;;;0.70;;
48076;SDS011;33854;57.708;12.008;2022-09-13T05:38:16;7.63;;;1.23;;
48076;SDS011;33854;57.708;12.008;2022-09-13T05:40:41;8.00;;;1.10;;
48076;SDS011;33854;57.708;12.008;2022-09-13T05:43:07;6.73;;;1.40;;
48076;SDS011;33854;57.708;12.008;2022-09-13T05:45:32;6.77;;;1.27;;
48076;SDS011;33854;57.708;12.008;2022-09-13T05:47:58;5.03;;;1.03;;
48076;SDS011;33854;57.708;12.008;2022-09-13T05:50:23;7.50;;;1.73;;
48076;SDS011;33854;57.708;12.008;2022-09-13T05:52:52;10.10;;;1.17;;
48076;SDS011;33854;57.708;12.008;2022-09-13T05:55:18;4.35;;;0.80;;
48076;SDS011;33854;57.708;12.008;2022-09-13T05:57:45;7.50;;;1.05;;
48076;SDS011;33854;57.708;12.008;2022-09-13T06:00:10;7.90;;;1.30;;
48076;SDS011;33854;57.708;12.008;2022-09-13T06:02:37;7.97;;;1.08;;
48076;SDS011;33854;57.708;12.008;2022-09-13T06:05:02;4.07;;;1.33;;
48076;SDS011;33854;57.708;12.008;2022-09-13T06:07:28;9.27;;;1.60;;
48076;SDS011;33854;57.708;12.008;2022-09-13T06:09:53;9.77;;;1.73;;
48076;SDS011;33854;57.708;12.008;2022-09-13T06:12:19;7.77;;;0.77;;
48076;SDS011;33854;57.708;12.008;2022-09-13T06:14:44;7.70;;;1.23;;
48076;SDS011;33854;57.708;12.008;2022-09-13T06:17:10;9.73;;;1.23;;
48076;SDS011;33854;57.708;12.008;2022-09-13T06:19:35;6.60;;;1.03;;
48076;SDS011;33854;57.708;12.008;2022-09-13T06:22:00;6.23;;;0.90;;
48076;SDS011;33854;57.708;12.008;2022-09-13T06:24:26;13.33;;;0.80;;
48076;SDS011;33854;57.708;12.008;2022-09-13T06:26:51;8.10;;;0.97;;
48076;SDS011;33854;57.708;12.008;2022-09-13T06:29:17;7.32;;;1.50;;
48076;SDS011;33854;57.708;12.008;2022-09-13T06:31:43;8.20;;;1.17;;
48076;SDS011;33854;57.708;12.008;2022-09-13T06:34:09;5.67;;;1.07;;
48076;SDS011;33854;57.708;12.008;2022-09-13T06:36:38;10.10;;;0.90;;
48076;SDS011;33854;57.708;12.008;2022-09-13T06:39:03;13.13;;;1.37;;
48076;SDS011;33854;57.708;12.008;2022-09-13T06:41:30;6.20;;;0.88;;
48076;SDS011;33854;57.708;12.008;2022-09-13T06:43:57;9.10;;;1.10;;
48076;SDS011;33854;57.708;12.008;2022-09-13T06:46:24;4.55;;;0.90;;
48076;SDS011;33854;57.708;12.008;2022-09-13T06:48:54;5.80;;;0.90;;
48076;SDS011;33854;57.708;12.008;2022-09-13T06:51:22;7.72;;;0.93;;
48076;SDS011;33854;57.708;12.008;2022-09-13T06:53:49;7.38;;;0.93;;
48076;SDS011;33854;57.708;12.008;2022-09-13T06:56:23;8.13;;;0.80;;
48076;SDS011;33854;57.708;12.008;2022-09-13T06:58:56;7.15;;;1.20;;
48076;SDS011;33854;57.708;12.008;2022-09-13T07:03:50;8.77;;;0.70;;
48076;SDS011;33854;57.708;12.008;2022-09-13T07:06:19;8.73;;;1.10;;
48076;SDS011;33854;57.708;12.008;2022-09-13T07:08:45;6.82;;;1.08;;
48076;SDS011;33854;57.708;12.008;2022-09-13T07:11:13;10.80;;;0.82;;
48076;SDS011;33854;57.708;12.008;2022-09-13T07:13:40;9.95;;;1.02;;
48076;SDS011;33854;57.708;12.008;2022-09-13T07:16:06;7.07;;;0.87;;
48076;SDS011;33854;57.708;12.008;2022-09-13T07:18:34;11.02;;;0.85;;
48076;SDS011;33854;57.708;12.008;2022-09-13T07:21:03;7.00;;;0.80;;
48076;SDS011;33854;57.708;12.008;2022-09-13T07:23:34;3.65;;;0.93;;
48076;SDS011;33854;57.708;12.008;2022-09-13T07:26:01;6.93;;;1.15;;
48076;SDS011;33854;57.708;12.008;2022-09-13T07:28:29;2.17;;;0.35;;
48076;SDS011;33854;57.708;12.008;2022-09-13T07:33:47;8.13;;;1.05;;
48076;SDS011;33854;57.708;12.008;2022-09-13T07:36:17;7.47;;;0.80;;
48076;SDS011;33854;57.708;12.008;2022-09-13T07:38:43;7.47;;;0.80;;
48076;SDS011;33854;57.708;12.008;2022-09-13T07:41:27;9.27;;;1.05;;
48076;SDS011;33854;57.708;12.008;2022-09-13T07:43:54;8.30;;;1.10;;
48076;SDS011;33854;57.708;12.008;2022-09-13T07:46:24;8.00;;;1.08;;
48076;SDS011;33854;57.708;12.008;2022-09-13T07:48:51;3.60;;;0.63;;
48076;SDS011;33854;57.708;12.008;2022-09-13T07:51:22;3.72;;;0.60;;
48076;SDS011;33854;57.708;12.008;2022-09-13T07:53:51;7.20;;;1.05;;
48076;SDS011;33854;57.708;12.008;2022-09-13T07:56:20;4.25;;;0.75;;
48076;SDS011;33854;57.708;12.008;2022-09-13T07:58:48;6.07;;;1.00;;
48076;SDS011;33854;57.708;12.008;2022-09-13T08:01:15;4.45;;;0.52;;
48076;SDS011;33854;57.708;12.008;2022-09-13T08:03:43;9.73;;;0.77;;
48076;SDS011;33854;57.708;12.008;2022-09-13T08:06:14;7.47;;;1.10;;
48076;SDS011;33854;57.708;12.008;2022-09-13T08:08:39;12.60;;;1.43;;
48076;SDS011;33854;57.708;12.008;2022-09-13T08:11:05;10.00;;;0.77;;
48076;SDS011;33854;57.708;12.008;2022-09-13T08:13:31;4.03;;;0.73;;
48076;SDS011;33854;57.708;12.008;2022-09-13T08:15:59;8.07;;;1.27;;
48076;SDS011;33854;57.708;12.008;2022-09-13T08:18:27;9.27;;;1.00;;
48076;SDS011;33854;57.708;12.008;2022-09-13T08:20:55;6.37;;;1.80;;
48076;SDS011;33854;57.708;12.008;2022-09-13T08:23:22;8.07;;;1.05;;
48076;SDS011;33854;57.708;12.008;2022-09-13T08:25:48;5.45;;;0.60;;
48076;SDS011;33854;57.708;12.008;2022-09-13T08:28:15;4.37;;;1.13;;
48076;SDS011;33854;57.708;12.008;2022-09-13T08:30:41;9.18;;;1.10;;
48076;SDS011;33854;57.708;12.008;2022-09-13T08:33:07;7.88;;;0.80;;
48076;SDS011;33854;57.708;12.008;2022-09-13T08:37:59;6.57;;;0.50;;
48076;SDS011;33854;57.708;12.008;2022-09-13T08:40:29;10.33;;;1.07;;
48076;SDS011;33854;57.708;12.008;2022-09-13T08:45:38;6.57;;;0.90;;
48076;SDS011;33854;57.708;12.008;2022-09-13T08:48:07;7.33;;;0.83;;
48076;SDS011;33854;57.708;12.008;2022-09-13T08:50:37;4.13;;;0.68;;
48076;SDS011;33854;57.708;12.008;2022-09-13T08:56:01;6.50;;;0.80;;
48076;SDS011;33854;57.708;12.008;2022-09-13T09:06:55;4.93;;;0.40;;
48076;SDS011;33854;57.708;12.008;2022-09-13T09:09:26;5.75;;;0.52;;
48076;SDS011;33854;57.708;12.008;2022-09-13T09:11:57;3.58;;;0.85;;
48076;SDS011;33854;57.708;12.008;2022-09-13T09:14:47;8.13;;;1.08;;
48076;SDS011;33854;57.708;12.008;2022-09-13T09:17:24;6.32;;;1.30;;
48076;SDS011;33854;57.708;12.008;2022-09-13T09:20:06;8.40;;;1.00;;
48076;SDS011;33854;57.708;12.008;2022-09-13T09:22:41;5.50;;;0.60;;
48076;SDS011;33854;57.708;12.008;2022-09-13T09:25:09;3.97;;;0.50;;
48076;SDS011;33854;57.708;12.008;2022-09-13T09:27:36;5.63;;;1.17;;
48076;SDS011;33854;57.708;12.008;2022-09-13T09:30:01;10.10;;;1.57;;
48076;SDS011;33854;57.708;12.008;2022-09-13T09:38:41;5.90;;;1.05;;
48076;SDS011;33854;57.708;12.008;2022-09-13T09:40:47;6.68;;;0.93;;
48076;SDS011;33854;57.708;12.008;2022-09-13T09:43:14;14.25;;;2.10;;
48076;SDS011;33854;57.708;12.008;2022-09-13T09:45:44;9.05;;;1.00;;
48076;SDS011;33854;57.708;12.008;2022-09-13T09:48:14;6.63;;;1.02;;
48076;SDS011;33854;57.708;12.008;2022-09-13T09:50:44;7.40;;;1.45;;
48076;SDS011;33854;57.708;12.008;2022-09-13T09:53:15;6.55;;;1.40;;
48076;SDS011;33854;57.708;12.008;2022-09-13T09:55:49;10.60;;;1.65;;
48076;SDS011;33854;57.708;12.008;2022-09-13T09:58:35;14.18;;;1.65;;
48076;SDS011;33854;57.708;12.008;2022-09-13T10:01:04;11.32;;;1.40;;
48076;SDS011;33854;57.708;12.008;2022-09-13T10:03:39;11.05;;;1.83;;
48076;SDS011;33854;57.708;12.008;2022-09-13T10:06:08;15.00;;;1.45;;
48076;SDS011;33854;57.708;12.008;2022-09-13T10:08:38;8.25;;;0.80;;
48076;SDS011;33854;57.708;12.008;2022-09-13T10:11:06;10.25;;;1.05;;
48076;SDS011;33854;57.708;12.008;2022-09-13T10:13:32;14.38;;;0.80;;
48076;SDS011;33854;57.708;12.008;2022-09-13T10:15:59;13.67;;;0.87;;
48076;SDS011;33854;57.708;12.008;2022-09-13T10:18:30;8.40;;;0.88;;
48076;SDS011;33854;57.708;12.008;2022-09-13T10:21:01;8.85;;;0.88;;
48076;SDS011;33854;57.708;12.008;2022-09-13T10:23:35;9.60;;;1.00;;
48076;SDS011;33854;57.708;12.008;2022-09-13T10:28:54;6.85;;;0.60;;
48076;SDS011;33854;57.708;12.008;2022-09-13T10:31:40;4.38;;;0.65;;
48076;SDS011;33854;57.708;12.008;2022-09-13T10:34:13;12.20;;;1.33;;
48076;SDS011;33854;57.708;12.008;2022-09-13T10:39:24;6.53;;;0.68;;
48076;SDS011;33854;57.708;12.008;2022-09-13T10:41:52;10.73;;;1.20;;
48076;SDS011;33854;57.708;12.008;2022-09-13T10:44:22;8.93;;;0.70;;
48076;SDS011;33854;57.708;12.008;2022-09-13T10:46:52;8.90;;;1.02;;
48076;SDS011;33854;57.708;12.008;2022-09-13T10:54:54;6.25;;;0.68;;
48076;SDS011;33854;57.708;12.008;2022-09-13T10:57:40;12.23;;;0.90;;
48076;SDS011;33854;57.708;12.008;2022-09-13T11:00:06;6.20;;;0.70;;
48076;SDS011;33854;57.708;12.008;2022-09-13T11:21:26;6.95;;;0.82;;
48076;SDS011;33854;57.708;12.008;2022-09-13T11:41:11;5.18;;;0.47;;
48076;SDS011;33854;57.708;12.008;2022-09-13T11:57:54;0.00;;;0.00;;
48076;SDS011;33854;57.708;12.008;2022-09-13T12:00:28;0.00;;;0.00;;
48076;SDS011;33854;57.708;12.008;2022-09-13T12:05:25;0.30;;;0.30;;
48076;SDS011;33854;57.708;12.008;2022-09-13T12:13:00;0.22;;;0.08;;
48076;SDS011;33854;57.708;12.008;2022-09-13T12:15:40;0.00;;;0.00;;
48076;SDS011;33854;57.708;12.008;2022-09-13T12:18:12;0.00;;;0.00;;
48076;SDS011;33854;57.708;12.008;2022-09-13T12:20:44;0.00;;;0.00;;
48076;SDS011;33854;57.708;12.008;2022-09-13T12:23:18;0.00;;;0.00;;
48076;SDS011;33854;57.708;12.008;2022-09-13T12:25:59;0.00;;;0.00;;
48076;SDS011;33854;57.708;12.008;2022-09-13T12:28:33;0.10;;;0.10;;
48076;SDS011;33854;57.708;12.008;2022-09-13T12:31:04;0.00;;;0.00;;
48076;SDS011;33854;57.708;12.008;2022-09-13T12:33:37;0.00;;;0.00;;
48076;SDS011;33854;57.708;12.008;2022-09-13T12:42:05;0.00;;;0.00;;
48076;SDS011;33854;57.708;12.008;2022-09-13T12:44:09;0.00;;;0.00;;
48076;SDS011;33854;57.708;12.008;2022-09-13T12:54:39;0.00;;;0.00;;
48076;SDS011;33854;57.708;12.008;2022-09-13T13:02:42;0.00;;;0.00;;
48076;SDS011;33854;57.708;12.008;2022-09-13T13:05:28;0.00;;;0.00;;
48076;SDS011;33854;57.708;12.008;2022-09-13T13:07:57;0.00;;;0.00;;
48076;SDS011;33854;57.708;12.008;2022-09-13T13:13:09;0.00;;;0.00;;
48076;SDS011;33854;57.708;12.008;2022-09-13T13:18:28;0.00;;;0.00;;
48076;SDS011;33854;57.708;12.008;2022-09-13T13:21:22;0.00;;;0.00;;
48076;SDS011;33854;57.708;12.008;2022-09-13T13:26:43;0.00;;;0.00;;
48076;SDS011;33854;57.708;12.008;2022-09-13T13:31:43;0.00;;;0.00;;
48076;SDS011;33854;57.708;12.008;2022-09-13T13:44:01;0.00;;;0.00;;
48076;SDS011;33854;57.708;12.008;2022-09-13T13:46:53;0.00;;;0.00;;
48076;SDS011;33854;57.708;12.008;2022-09-13T14:00:03;0.00;;;0.00;;
48076;SDS011;33854;57.708;12.008;2022-09-13T14:02:41;0.00;;;0.00;;
48076;SDS011;33854;57.708;12.008;2022-09-13T14:10:08;0.00;;;0.00;;
48076;SDS011;33854;57.708;12.008;2022-09-13T14:13:01;0.00;;;0.00;;
48076;SDS011;33854;57.708;12.008;2022-09-13T14:16:01;0.00;;;0.00;;
48076;SDS011;33854;57.708;12.008;2022-09-13T14:21:31;0.00;;;0.00;;
48076;SDS011;33854;57.708;12.008;2022-09-13T14:26:48;0.00;;;0.00;;
48076;SDS011;33854;57.708;12.008;2022-09-13T14:29:20;17.98;;;1.00;;
48076;SDS011;33854;57.708;12.008;2022-09-13T14:31:48;0.00;;;0.00;;
48076;SDS011;33854;57.708;12.008;2022-09-13T14:34:26;0.00;;;0.00;;
48076;SDS011;33854;57.708;12.008;2022-09-13T14:36:55;1.77;;;0.95;;
48076;SDS011;33854;57.708;12.008;2022-09-13T14:39:22;0.00;;;0.00;;
48076;SDS011;33854;57.708;12.008;2022-09-13T14:41:56;0.35;;;0.35;;
48076;SDS011;33854;57.708;12.008;2022-09-13T14:44:24;2.35;;;0.30;;
48076;SDS011;33854;57.708;12.008;2022-09-13T14:47:02;6.82;;;1.48;;
48076;SDS011;33854;57.708;12.008;2022-09-13T14:49:44;6.25;;;0.95;;
48076;SDS011;33854;57.708;12.008;2022-09-13T14:52:32;8.90;;;0.88;;
48076;SDS011;33854;57.708;12.008;2022-09-13T14:55:01;7.82;;;1.50;;
48076;SDS011;33854;57.708;12.008;2022-09-13T14:57:35;17.63;;;1.40;;
48076;SDS011;33854;57.708;12.008;2022-09-13T15:02:39;10.97;;;1.13;;
48076;SDS011;33854;57.708;12.008;2022-09-13T15:05:19;13.77;;;1.90;;
48076;SDS011;33854;57.708;12.008;2022-09-13T15:07:47;0.00;;;0.00;;
48076;SDS011;33854;57.708;12.008;2022-09-13T15:12:49;13.80;;;2.05;;
48076;SDS011;33854;57.708;12.008;2022-09-13T15:15:31;15.88;;;2.22;;
48076;SDS011;33854;57.708;12.008;2022-09-13T15:23:47;26.20;;;4.07;;
48076;SDS011;33854;57.708;12.008;2022-09-13T15:26:23;29.23;;;2.88;;
48076;SDS011;33854;57.708;12.008;2022-09-13T15:28:50;20.38;;;2.22;;
48076;SDS011;33854;57.708;12.008;2022-09-13T15:31:18;19.40;;;3.03;;
48076;SDS011;33854;57.708;12.008;2022-09-13T15:33:47;25.40;;;3.70;;
48076;SDS011;33854;57.708;12.008;2022-09-13T15:39:26;26.85;;;3.67;;
48076;SDS011;33854;57.708;12.008;2022-09-13T15:41:40;22.33;;;4.80;;
48076;SDS011;33854;57.708;12.008;2022-09-13T15:44:16;26.15;;;4.30;;
48076;SDS011;33854;57.708;12.008;2022-09-13T15:46:47;19.40;;;3.07;;
48076;SDS011;33854;57.708;12.008;2022-09-13T15:49:16;29.30;;;3.85;;
48076;SDS011;33854;57.708;12.008;2022-09-13T15:51:43;23.63;;;4.15;;
48076;SDS011;33854;57.708;12.008;2022-09-13T15:54:10;25.47;;;3.60;;
48076;SDS011;33854;57.708;12.008;2022-09-13T15:56:37;22.77;;;2.95;;
48076;SDS011;33854;57.708;12.008;2022-09-13T15:59:07;22.80;;;3.10;;
48076;SDS011;33854;57.708;12.008;2022-09-13T16:01:36;19.65;;;3.42;;
48076;SDS011;33854;57.708;12.008;2022-09-13T16:04:02;22.10;;;3.40;;
48076;SDS011;33854;57.708;12.008;2022-09-13T16:06:29;22.50;;;3.13;;
48076;SDS011;33854;57.708;12.008;2022-09-13T16:08:54;14.90;;;2.90;;
48076;SDS011;33854;57.708;12.008;2022-09-13T16:11:20;22.30;;;3.53;;
48076;SDS011;33854;57.708;12.008;2022-09-13T16:13:45;15.30;;;2.90;;
48076;SDS011;33854;57.708;12.008;2022-09-13T16:16:12;22.10;;;2.77;;
48076;SDS011;33854;57.708;12.008;2022-09-13T16:18:38;24.50;;;3.25;;
48076;SDS011;33854;57.708;12.008;2022-09-13T16:21:04;24.10;;;3.40;;
48076;SDS011;33854;57.708;12.008;2022-09-13T16:23:29;24.90;;;2.73;;
48076;SDS011;33854;57.708;12.008;2022-09-13T16:25:55;16.13;;;3.20;;
48076;SDS011;33854;57.708;12.008;2022-09-13T16:28:23;16.02;;;3.20;;
48076;SDS011;33854;57.708;12.008;2022-09-13T16:30:49;21.80;;;4.13;;
48076;SDS011;33854;57.708;12.008;2022-09-13T16:33:15;25.35;;;2.90;;
48076;SDS011;33854;57.708;12.008;2022-09-13T16:35:40;17.13;;;2.43;;
48076;SDS011;33854;57.708;12.008;2022-09-13T16:38:06;18.50;;;2.90;;
48076;SDS011;33854;57.708;12.008;2022-09-13T16:40:31;20.53;;;3.73;;
48076;SDS011;33854;57.708;12.008;2022-09-13T16:42:56;22.03;;;2.90;;
48076;SDS011;33854;57.708;12.008;2022-09-13T16:45:22;16.00;;;2.40;;
48076;SDS011;33854;57.708;12.008;2022-09-13T16:47:47;16.80;;;2.20;;
48076;SDS011;33854;57.708;12.008;2022-09-13T16:50:13;24.23;;;4.17;;
48076;SDS011;33854;57.708;12.008;2022-09-13T16:52:38;24.50;;;3.47;;
48076;SDS011;33854;57.708;12.008;2022-09-13T16:55:04;13.63;;;2.40;;
48076;SDS011;33854;57.708;12.008;2022-09-13T16:57:30;16.77;;;3.55;;
48076;SDS011;33854;57.708;12.008;2022-09-13T16:59:55;30.77;;;4.87;;
48076;SDS011;33854;57.708;12.008;2022-09-13T17:02:23;21.45;;;3.35;;
48076;SDS011;33854;57.708;12.008;2022-09-13T17:04:49;16.73;;;2.92;;
48076;SDS011;33854;57.708;12.008;2022-09-13T17:07:14;13.27;;;2.60;;
48076;SDS011;33854;57.708;12.008;2022-09-13T17:09:40;19.97;;;3.13;;
48076;SDS011;33854;57.708;12.008;2022-09-13T17:12:06;16.33;;;3.20;;
48076;SDS011;33854;57.708;12.008;2022-09-13T17:14:33;13.65;;;2.10;;
48076;SDS011;33854;57.708;12.008;2022-09-13T17:16:59;18.40;;;3.00;;
48076;SDS011;33854;57.708;12.008;2022-09-13T17:19:26;12.48;;;2.67;;
48076;SDS011;33854;57.708;12.008;2022-09-13T17:21:57;15.75;;;3.00;;
48076;SDS011;33854;57.708;12.008;2022-09-13T17:24:24;15.40;;;2.90;;
48076;SDS011;33854;57.708;12.008;2022-09-13T17:26:51;17.95;;;3.53;;
48076;SDS011;33854;57.708;12.008;2022-09-13T17:29:17;14.45;;;3.50;;
48076;SDS011;33854;57.708;12.008;2022-09-13T17:31:43;21.98;;;3.03;;
48076;SDS011;33854;57.708;12.008;2022-09-13T17:34:09;16.85;;;2.78;;
48076;SDS011;33854;57.708;12.008;2022-09-13T17:36:37;18.52;;;2.53;;
48076;SDS011;33854;57.708;12.008;2022-09-13T17:39:04;16.42;;;2.20;;
48076;SDS011;33854;57.708;12.008;2022-09-13T17:41:30;17.13;;;2.78;;
48076;SDS011;33854;57.708;12.008;2022-09-13T17:43:55;10.83;;;1.90;;
48076;SDS011;33854;57.708;12.008;2022-09-13T17:46:22;12.27;;;2.63;;
48076;SDS011;33854;57.708;12.008;2022-09-13T17:48:52;19.77;;;2.80;;
48076;SDS011;33854;57.708;12.008;2022-09-13T17:51:19;18.05;;;2.35;;
48076;SDS011;33854;57.708;12.008;2022-09-13T17:53:46;19.23;;;2.50;;
48076;SDS011;33854;57.708;12.008;2022-09-13T17:56:17;16.85;;;2.50;;
48076;SDS011;33854;57.708;12.008;2022-09-13T17:58:47;17.05;;;2.95;;
48076;SDS011;33854;57.708;12.008;2022-09-13T18:01:13;18.27;;;2.85;;
48076;SDS011;33854;57.708;12.008;2022-09-13T18:03:39;15.07;;;3.23;;
48076;SDS011;33854;57.708;12.008;2022-09-13T18:06:05;16.80;;;3.33;;
48076;SDS011;33854;57.708;12.008;2022-09-13T18:08:32;15.63;;;2.20;;
48076;SDS011;33854;57.708;12.008;2022-09-13T18:13:33;10.23;;;1.88;;
48076;SDS011;33854;57.708;12.008;2022-09-13T18:15:59;20.02;;;1.98;;
48076;SDS011;33854;57.708;12.008;2022-09-13T18:18:27;13.90;;;2.15;;
48076;SDS011;33854;57.708;12.008;2022-09-13T18:20:52;14.03;;;2.33;;
48076;SDS011;33854;57.708;12.008;2022-09-13T18:23:18;21.10;;;2.37;;
48076;SDS011;33854;57.708;12.008;2022-09-13T18:25:54;16.52;;;2.28;;
48076;SDS011;33854;57.708;12.008;2022-09-13T18:28:20;12.60;;;2.30;;
48076;SDS011;33854;57.708;12.008;2022-09-13T18:30:51;17.63;;;2.70;;
48076;SDS011;33854;57.708;12.008;2022-09-13T18:33:21;14.70;;;2.75;;
48076;SDS011;33854;57.708;12.008;2022-09-13T18:36:21;21.27;;;3.65;;
48076;SDS011;33854;57.708;12.008;2022-09-13T18:38:42;17.00;;;3.70;;
48076;SDS011;33854;57.708;12.008;2022-09-13T18:41:19;17.88;;;3.03;;